Time;durP1;ratioP1;P1;durP2;ratioP2;P2;SDS_P1;SDS_P2;PMS_P1;PMS_P2;Temp;Humidity;BMP_temperature;BMP_pressure;BME280_temperature;BME280_humidity;BME280_pressure;Samples;Min_cycle;Max_cycle;Signal;HPM_P1;HPM_P2
2021/10/24 00:00:38;;;;;;;3.4;2.3;;;;;;;;;;;;;
2021/10/24 00:03:03;;;;;;;8.9;8.1;;;;;;;;;;;;;
2021/10/24 00:05:28;;;;;;;7.5;4.5;;;;;;;;;;;;;
2021/10/24 00:07:53;;;;;;;6.7;4.1;;;;;;;;;;;;;
2021/10/24 00:10:18;;;;;;;5.9;3.6;;;;;;;;;;;;;
2021/10/24 00:12:43;;;;;;;6.8;4;;;;;;;;;;;;;
2021/10/24 00:15:08;;;;;;;8.1;4.6;;;;;;;;;;;;;
2021/10/24 00:17:33;;;;;;;6;3.9;;;;;;;;;;;;;
2021/10/24 00:19:59;;;;;;;6.8;3.9;;;;;;;;;;;;;
2021/10/24 00:22:24;;;;;;;4.4;2.6;;;;;;;;;;;;;
2021/10/24 00:24:50;;;;;;;3.7;2.3;;;;;;;;;;;;;
2021/10/24 00:27:15;;;;;;;3.5;2.3;;;;;;;;;;;;;
2021/10/24 00:29:40;;;;;;;4.1;2.2;;;;;;;;;;;;;
2021/10/24 00:32:06;;;;;;;3.7;2.1;;;;;;;;;;;;;
2021/10/24 00:34:30;;;;;;;2.6;1.9;;;;;;;;;;;;;
2021/10/24 00:36:56;;;;;;;3;2.3;;;;;;;;;;;;;
2021/10/24 00:39:21;;;;;;;2.1;1.8;;;;;;;;;;;;;
2021/10/24 00:41:47;;;;;;;2;1.8;;;;;;;;;;;;;
2021/10/24 00:44:12;;;;;;;4;1.9;;;;;;;;;;;;;
2021/10/24 00:46:37;;;;;;;2;1.8;;;;;;;;;;;;;
2021/10/24 00:49:03;;;;;;;1.7;1.4;;;;;;;;;;;;;
2021/10/24 00:51:28;;;;;;;5.2;2;;;;;;;;;;;;;
2021/10/24 00:53:53;;;;;;;2.6;1.9;;;;;;;;;;;;;
2021/10/24 00:56:20;;;;;;;4.1;2.2;;;;;;;;;;;;;
2021/10/24 00:58:43;;;;;;;2.1;1.7;;;;;;;;;;;;;
2021/10/24 01:01:08;;;;;;;2.7;1.6;;;;;;;;;;;;;
2021/10/24 01:03:33;;;;;;;2.9;2.1;;;;;;;;;;;;;
2021/10/24 01:06:00;;;;;;;2.8;2;;;;;;;;;;;;;
2021/10/24 01:08:23;;;;;;;4.2;2.5;;;;;;;;;;;;;
2021/10/24 01:10:49;;;;;;;2.7;2;;;;;;;;;;;;;
2021/10/24 01:13:14;;;;;;;3.8;2.2;;;;;;;;;;;;;
2021/10/24 01:15:39;;;;;;;3.1;2.1;;;;;;;;;;;;;
2021/10/24 01:18:05;;;;;;;3.3;2.1;;;;;;;;;;;;;
2021/10/24 01:20:30;;;;;;;3.1;2.1;;;;;;;;;;;;;
2021/10/24 01:22:55;;;;;;;3.8;1.9;;;;;;;;;;;;;
2021/10/24 01:25:20;;;;;;;2.3;2;;;;;;;;;;;;;
2021/10/24 01:27:45;;;;;;;2.4;2.2;;;;;;;;;;;;;
2021/10/24 01:30:11;;;;;;;3.4;2.2;;;;;;;;;;;;;
2021/10/24 01:32:36;;;;;;;4.5;2.5;;;;;;;;;;;;;
2021/10/24 01:35:01;;;;;;;5.3;3;;;;;;;;;;;;;
2021/10/24 01:37:26;;;;;;;4.9;3.2;;;;;;;;;;;;;
2021/10/24 01:39:51;;;;;;;4.2;2.5;;;;;;;;;;;;;
2021/10/24 01:42:16;;;;;;;3.2;2.1;;;;;;;;;;;;;
2021/10/24 01:44:42;;;;;;;5.1;2.4;;;;;;;;;;;;;
2021/10/24 01:47:07;;;;;;;3.5;2.3;;;;;;;;;;;;;
2021/10/24 01:49:32;;;;;;;2.1;1.7;;;;;;;;;;;;;
2021/10/24 01:51:57;;;;;;;3.1;2;;;;;;;;;;;;;
2021/10/24 01:54:22;;;;;;;3.8;2.2;;;;;;;;;;;;;
2021/10/24 01:56:47;;;;;;;3.3;2;;;;;;;;;;;;;
2021/10/24 01:59:12;;;;;;;3.3;2;;;;;;;;;;;;;
2021/10/24 02:01:37;;;;;;;3;2.1;;;;;;;;;;;;;
2021/10/24 02:04:02;;;;;;;4.1;2;;;;;;;;;;;;;
2021/10/24 02:06:28;;;;;;;2.7;2.1;;;;;;;;;;;;;
2021/10/24 02:08:53;;;;;;;3.9;2.1;;;;;;;;;;;;;
2021/10/24 02:11:21;;;;;;;3.3;2.2;;;;;;;;;;;;;
2021/10/24 02:13:44;;;;;;;3.8;2.1;;;;;;;;;;;;;
2021/10/24 02:16:09;;;;;;;3.6;2.3;;;;;;;;;;;;;
2021/10/24 02:18:46;;;;;;;4.2;1.9;;;;;;;;;;;;;
2021/10/24 02:21:11;;;;;;;2.3;2.1;;;;;;;;;;;;;
2021/10/24 02:23:36;;;;;;;2.7;2;;;;;;;;;;;;;
2021/10/24 02:26:02;;;;;;;3.7;2.1;;;;;;;;;;;;;
2021/10/24 02:28:27;;;;;;;3.8;2;;;;;;;;;;;;;
2021/10/24 02:30:52;;;;;;;2.1;1.9;;;;;;;;;;;;;
2021/10/24 02:33:17;;;;;;;3.1;1.9;;;;;;;;;;;;;
2021/10/24 02:35:42;;;;;;;2.1;1.8;;;;;;;;;;;;;
2021/10/24 02:38:08;;;;;;;3.1;1.7;;;;;;;;;;;;;
2021/10/24 02:40:33;;;;;;;3.6;2;;;;;;;;;;;;;
2021/10/24 02:42:58;;;;;;;2.4;2;;;;;;;;;;;;;
2021/10/24 02:45:24;;;;;;;3.4;2.2;;;;;;;;;;;;;
2021/10/24 02:47:49;;;;;;;3.7;2.2;;;;;;;;;;;;;
2021/10/24 02:50:14;;;;;;;3.8;2.2;;;;;;;;;;;;;
2021/10/24 02:52:39;;;;;;;4.5;2.3;;;;;;;;;;;;;
2021/10/24 02:55:07;;;;;;;2.2;2;;;;;;;;;;;;;
2021/10/24 02:57:31;;;;;;;2.8;2.1;;;;;;;;;;;;;
2021/10/24 02:59:56;;;;;;;3.4;2.3;;;;;;;;;;;;;
2021/10/24 03:02:21;;;;;;;7.4;2.9;;;;;;;;;;;;;
2021/10/24 03:04:46;;;;;;;3.1;2;;;;;;;;;;;;;
2021/10/24 03:07:13;;;;;;;4.2;2.3;;;;;;;;;;;;;
2021/10/24 03:09:37;;;;;;;4.5;2.3;;;;;;;;;;;;;
2021/10/24 03:12:02;;;;;;;2.4;2.1;;;;;;;;;;;;;
2021/10/24 03:14:28;;;;;;;2.2;1.6;;;;;;;;;;;;;
2021/10/24 03:16:53;;;;;;;4;2;;;;;;;;;;;;;
2021/10/24 03:19:18;;;;;;;3.2;2.1;;;;;;;;;;;;;
2021/10/24 03:21:43;;;;;;;3.3;2;;;;;;;;;;;;;
2021/10/24 03:24:08;;;;;;;2.3;1.6;;;;;;;;;;;;;
2021/10/24 03:26:33;;;;;;;4.1;2;;;;;;;;;;;;;
2021/10/24 03:28:58;;;;;;;2.3;1.6;;;;;;;;;;;;;
2021/10/24 03:31:30;;;;;;;2.4;1.6;;;;;;;;;;;;;
2021/10/24 03:33:55;;;;;;;2.3;2;;;;;;;;;;;;;
2021/10/24 03:36:20;;;;;;;4.1;2;;;;;;;;;;;;;
2021/10/24 03:38:45;;;;;;;3.5;2.3;;;;;;;;;;;;;
2021/10/24 03:41:10;;;;;;;3.9;2;;;;;;;;;;;;;
2021/10/24 03:43:35;;;;;;;2.6;1.9;;;;;;;;;;;;;
2021/10/24 03:46:01;;;;;;;4.4;1.9;;;;;;;;;;;;;
2021/10/24 03:48:25;;;;;;;3;1.9;;;;;;;;;;;;;
2021/10/24 03:50:50;;;;;;;3.7;2.4;;;;;;;;;;;;;
2021/10/24 03:53:16;;;;;;;3.9;2.2;;;;;;;;;;;;;
2021/10/24 03:55:41;;;;;;;3;1.8;;;;;;;;;;;;;
2021/10/24 03:58:06;;;;;;;1.9;1.7;;;;;;;;;;;;;
2021/10/24 04:02:32;;;;;;;3.4;1.9;;;;;;;1.67;92.53223;945.954;;;;
2021/10/24 04:04:57;;;;;;;2.6;1.8;;;;;;;1.59;92.23633;945.9731;;;;
2021/10/24 04:07:22;;;;;;;2.5;2.1;;;;;;;1.6;92.42871;945.9627;;;;
2021/10/24 04:09:48;;;;;;;3.4;2.7;;;;;;;1.64;92.07813;945.8234;;;;
2021/10/24 04:12:13;;;;;;;2;1.6;;;;;;;1.63;92.07617;945.9003;;;;
2021/10/24 04:14:38;;;;;;;2.4;1.9;;;;;;;1.6;92.10254;945.7938;;;;
2021/10/24 04:17:03;;;;;;;2.7;1.8;;;;;;;1.57;92.32031;945.8851;;;;
2021/10/24 04:19:28;;;;;;;2;1.7;;;;;;;1.46;92.95801;945.8649;;;;
2021/10/24 04:21:55;;;;;;;4.9;2.2;;;;;;;1.56;92.68652;945.764;;;;
2021/10/24 04:24:19;;;;;;;6.3;3.3;;;;;;;1.66;92.31738;945.8053;;;;
2021/10/24 04:26:45;;;;;;;8.7;4.3;;;;;;;1.72;91.55957;945.7858;;;;
2021/10/24 04:29:10;;;;;;;1.8;1.2;;;;;;;2.17;88.8916;945.6902;;;;
2021/10/24 04:31:36;;;;;;;4.4;2.6;;;;;;;2.26;88.05762;945.8044;;;;
2021/10/24 04:34:02;;;;;;;4.7;2.1;;;;;;;1.98;89.14063;945.7963;;;;
2021/10/24 04:36:28;;;;;;;3.4;2.1;;;;;;;1.88;90.22754;945.7664;;;;
2021/10/24 04:39:04;;;;;;;4.3;2.7;;;;;;;1.81;90.36133;945.7347;;;;
2021/10/24 04:41:32;;;;;;;6.2;3.2;;;;;;;1.63;90.75879;945.7224;;;;
2021/10/24 04:43:57;;;;;;;5;2.6;;;;;;;1.52;91.50293;945.7156;;;;
2021/10/24 04:46:25;;;;;;;4.7;2.7;;;;;;;1.41;92.04102;945.7521;;;;
2021/10/24 04:48:50;;;;;;;4.5;2.4;;;;;;;1.46;92.45508;945.6561;;;;
2021/10/24 04:51:17;;;;;;;2.7;1.8;;;;;;;1.48;92.34668;945.6125;;;;
2021/10/24 04:53:42;;;;;;;3.7;2.4;;;;;;;1.41;93.38184;945.6259;;;;
2021/10/24 04:56:07;;;;;;;6.1;3.2;;;;;;;1.51;93.28125;945.5986;;;;
2021/10/24 04:58:35;;;;;;;6.9;4.1;;;;;;;1.57;92.72266;945.5695;;;;
2021/10/24 05:01:02;;;;;;;3.8;2.5;;;;;;;1.52;92.11816;945.5784;;;;
2021/10/24 05:03:25;;;;;;;5.3;2.9;;;;;;;1.47;92.1416;945.5355;;;;
2021/10/24 05:05:50;;;;;;;3.6;2.3;;;;;;;1.47;92.33398;945.5853;;;;
2021/10/24 05:08:15;;;;;;;3.7;2.6;;;;;;;1.51;92.0957;945.5765;;;;
2021/10/24 05:10:43;;;;;;;5.8;3.1;;;;;;;1.53;91.59863;945.5745;;;;
2021/10/24 05:13:06;;;;;;;5.6;3.3;;;;;;;1.43;91.76758;945.5376;;;;
2021/10/24 05:15:32;;;;;;;4.4;2.5;;;;;;;1.39;91.75488;945.524;;;;
2021/10/24 05:17:57;;;;;;;4.3;2;;;;;;;1.41;91.77246;945.5284;;;;
2021/10/24 05:20:22;;;;;;;2.8;2.2;;;;;;;1.32;92.62402;945.4291;;;;
2021/10/24 05:22:48;;;;;;;3.3;2;;;;;;;1.39;92.66016;945.5334;;;;
2021/10/24 05:25:13;;;;;;;3.7;2.2;;;;;;;1.41;92.50977;945.4957;;;;
2021/10/24 05:27:40;;;;;;;5.2;2.2;;;;;;;1.52;92.09766;945.5505;;;;
2021/10/24 05:30:04;;;;;;;2.2;1.9;;;;;;;1.72;91.1123;945.505;;;;
2021/10/24 05:32:31;;;;;;;2;1.5;;;;;;;2.06;88.57715;945.4515;;;;
2021/10/24 05:34:55;;;;;;;4.1;2.1;;;;;;;2.37;86.80469;945.4692;;;;
2021/10/24 05:37:20;;;;;;;3.6;2.2;;;;;;;2.29;86.75586;945.4977;;;;
2021/10/24 05:39:45;;;;;;;4.4;2.4;;;;;;;2.03;87.5293;945.4781;;;;
2021/10/24 05:42:11;;;;;;;4.4;2.1;;;;;;;1.91;88.71484;945.5477;;;;
2021/10/24 05:44:36;;;;;;;2.4;1.9;;;;;;;1.85;88.79004;945.5338;;;;
2021/10/24 05:47:02;;;;;;;2.4;1.9;;;;;;;1.77;89.5;945.5159;;;;
2021/10/24 05:49:27;;;;;;;3.6;2.3;;;;;;;1.65;90.24609;945.5159;;;;
2021/10/24 05:51:53;;;;;;;4.1;2.7;;;;;;;1.64;91.63086;945.5563;;;;
2021/10/24 05:54:19;;;;;;;3.9;2.8;;;;;;;1.67;91.71582;945.5397;;;;
2021/10/24 05:56:44;;;;;;;5.7;3.5;;;;;;;1.66;90.25;945.545;;;;
2021/10/24 05:59:10;;;;;;;6.8;3.1;;;;;;;1.67;90.57422;945.4668;;;;
2021/10/24 06:01:35;;;;;;;4.1;2.5;;;;;;;1.64;89.99902;945.5955;;;;
2021/10/24 06:04:01;;;;;;;3.7;2.7;;;;;;;1.58;90.05176;945.5574;;;;
2021/10/24 06:06:26;;;;;;;4.4;2.9;;;;;;;1.64;89.99902;945.6136;;;;
2021/10/24 06:08:54;;;;;;;4.9;2.5;;;;;;;1.66;89.93555;945.6201;;;;
2021/10/24 06:11:26;;;;;;;3.6;2.3;;;;;;;1.72;89.83691;945.5839;;;;
2021/10/24 06:13:43;;;;;;;5.5;2.9;;;;;;;1.63;90.61133;945.7183;;;;
2021/10/24 06:16:08;;;;;;;3.4;2.4;;;;;;;1.74;90.00879;945.6911;;;;
2021/10/24 06:18:33;;;;;;;4.2;2.3;;;;;;;1.89;89.7168;945.7452;;;;
2021/10/24 06:20:58;;;;;;;3.7;2;;;;;;;1.93;88.89844;945.7498;;;;
2021/10/24 06:23:23;;;;;;;5;2.2;;;;;;;2.1;88.27148;945.8147;;;;
2021/10/24 06:25:51;;;;;;;2.3;1.9;;;;;;;2.27;87.36621;945.7672;;;;
2021/10/24 06:28:17;;;;;;;3.8;2.2;;;;;;;2.46;86.74414;945.769;;;;
2021/10/24 06:30:42;;;;;;;5.6;2.4;;;;;;;2.64;86.37598;945.7665;;;;
2021/10/24 06:33:07;;;;;;;5.7;3.7;;;;;;;2.73;85.63574;945.8044;;;;
2021/10/24 06:35:34;;;;;;;5.3;3.9;;;;;;;2.72;85.38574;945.8014;;;;
2021/10/24 06:37:58;;;;;;;6.1;3.8;;;;;;;2.84;85.15137;945.6994;;;;
2021/10/24 06:41:10;;;;;;;8.3;5.6;;;;;;;2.75;84.65137;945.7807;;;;
2021/10/24 06:43:36;;;;;;;6.3;4.8;;;;;;;2.61;85.79004;945.798;;;;
2021/10/24 06:46:01;;;;;;;6.8;5.4;;;;;;;2.73;86.33984;945.7971;;;;
2021/10/24 06:48:26;;;;;;;6.9;3.9;;;;;;;2.91;85.96191;945.7152;;;;
2021/10/24 06:50:51;;;;;;;4.8;2.9;;;;;;;3.2;84.67383;945.84;;;;
2021/10/24 06:53:17;;;;;;;4.4;2.4;;;;;;;3.43;83.70801;945.7162;;;;
2021/10/24 06:55:42;;;;;;;4.2;2.3;;;;;;;3.77;82.94238;945.6892;;;;
2021/10/24 06:58:07;;;;;;;3.8;2.5;;;;;;;3.97;80.76758;945.7406;;;;
2021/10/24 07:00:32;;;;;;;5.8;3.5;;;;;;;4.14;80.13574;945.6911;;;;
2021/10/24 07:03:40;;;;;;;8;4.8;;;;;;;4.04;81.52344;945.7551;;;;
2021/10/24 07:06:07;;;;;;;5.2;3.3;;;;;;;4.26;80.3623;945.7356;;;;
2021/10/24 07:08:32;;;;;;;4.5;2.9;;;;;;;4.41;79.5459;945.759;;;;
2021/10/24 07:10:59;;;;;;;7.9;3.9;;;;;;;4.54;78.28516;945.7181;;;;
2021/10/24 07:13:25;;;;;;;8.3;3.9;;;;;;;4.68;78.68359;945.6933;;;;
2021/10/24 07:15:51;;;;;;;4.3;2.7;;;;;;;4.87;78.45996;945.7491;;;;
2021/10/24 07:18:16;;;;;;;4.7;2.7;;;;;;;5.03;76.69727;945.7395;;;;
2021/10/24 07:20:43;;;;;;;6.5;3.6;;;;;;;5.19;76.51074;945.7644;;;;
2021/10/24 07:23:08;;;;;;;4.6;3.2;;;;;;;5.22;75.69336;945.7028;;;;
2021/10/24 07:25:34;;;;;;;4.3;3;;;;;;;5.34;75.53223;945.7319;;;;
2021/10/24 07:27:59;;;;;;;5;3.3;;;;;;;5.45;74.9209;945.6855;;;;
2021/10/24 07:30:24;;;;;;;4.5;2.9;;;;;;;5.46;74.66504;945.7333;;;;
2021/10/24 07:32:49;;;;;;;4.4;2.7;;;;;;;5.37;74.24121;945.7578;;;;
2021/10/24 07:35:15;;;;;;;2.8;2.3;;;;;;;5.51;74.32324;945.7819;;;;
2021/10/24 07:37:39;;;;;;;4.1;2.6;;;;;;;5.72;73.73828;945.6903;;;;
2021/10/24 07:40:04;;;;;;;5.5;3;;;;;;;5.9;73.19336;945.7064;;;;
2021/10/24 07:42:29;;;;;;;4.5;2.3;;;;;;;6.01;72.61133;945.7383;;;;
2021/10/24 07:44:54;;;;;;;3.5;2.6;;;;;;;6.1;71.97266;945.7122;;;;
2021/10/24 07:47:20;;;;;;;5.1;2.8;;;;;;;6.16;72.18652;945.6599;;;;
2021/10/24 07:49:45;;;;;;;4.4;3;;;;;;;6.31;71.62305;945.6174;;;;
2021/10/24 07:52:10;;;;;;;5.5;3.2;;;;;;;6.44;70.90918;945.5972;;;;
2021/10/24 07:54:35;;;;;;;4;2.6;;;;;;;6.67;70.54102;945.613;;;;
2021/10/24 07:57:00;;;;;;;2.5;1.9;;;;;;;6.71;69.13379;945.6856;;;;
2021/10/24 07:59:25;;;;;;;3.2;2.1;;;;;;;6.88;68.96875;945.6573;;;;
2021/10/24 08:01:50;;;;;;;3.3;1.9;;;;;;;7.17;67.36133;945.6367;;;;
2021/10/24 08:04:15;;;;;;;3.4;1.8;;;;;;;7.55;65.4248;945.6022;;;;
2021/10/24 08:06:40;;;;;;;5.1;2;;;;;;;7.91;64.04883;945.6125;;;;
2021/10/24 08:09:05;;;;;;;3.6;2.1;;;;;;;8.31;62.67871;945.5865;;;;
2021/10/24 08:11:31;;;;;;;6.1;2.1;;;;;;;8.96;60.29297;945.5863;;;;
2021/10/24 08:13:56;;;;;;;5.7;2.5;;;;;;;9.12;60.21387;945.5759;;;;
2021/10/24 08:16:21;;;;;;;3;2.1;;;;;;;9.14;58.4502;945.5793;;;;
2021/10/24 08:18:48;;;;;;;2.3;1.6;;;;;;;8.87;59.77832;945.6003;;;;
2021/10/24 08:21:13;;;;;;;2.1;1.4;;;;;;;9.42;58.42188;945.5945;;;;
2021/10/24 08:23:39;;;;;;;1.2;1.1;;;;;;;9.5;57.80566;945.6417;;;;
2021/10/24 08:26:04;;;;;;;2;1.3;;;;;;;9.23;59.38574;945.5496;;;;
2021/10/24 08:28:30;;;;;;;1.5;1.2;;;;;;;10.2;56.07422;945.6426;;;;
2021/10/24 08:30:55;;;;;;;2.7;1.4;;;;;;;9.76;57.12305;945.5912;;;;
2021/10/24 08:33:21;;;;;;;2.6;1.4;;;;;;;10.64;56.68945;945.627;;;;
2021/10/24 08:35:46;;;;;;;1.4;1.2;;;;;;;11.22;54.90234;945.6355;;;;
2021/10/24 08:38:13;;;;;;;2.7;1.1;;;;;;;10.87;53.79492;945.5826;;;;
2021/10/24 08:40:39;;;;;;;1.5;1.2;;;;;;;11.4;53.16406;945.5932;;;;
2021/10/24 08:43:14;;;;;;;1.9;1.3;;;;;;;11.47;51.00977;945.5924;;;;
2021/10/24 08:45:29;;;;;;;1.4;1.1;;;;;;;11.25;51.54395;945.6616;;;;
2021/10/24 08:47:55;;;;;;;1.2;1;;;;;;;11.58;49.90137;945.6158;;;;
2021/10/24 08:50:20;;;;;;;1.7;1.2;;;;;;;11.48;50.62109;945.6149;;;;
2021/10/24 08:52:50;;;;;;;1.2;1.1;;;;;;;11.64;49.1875;945.606;;;;
2021/10/24 08:55:15;;;;;;;1.9;1;;;;;;;11.56;48.13574;945.5333;;;;
2021/10/24 08:57:41;;;;;;;1;0.7;;;;;;;11.41;48.66895;945.5591;;;;
2021/10/24 09:00:05;;;;;;;1.4;0.7;;;;;;;11.27;48.26465;945.6102;;;;
2021/10/24 09:02:32;;;;;;;2;0.8;;;;;;;11.57;45.00098;945.6196;;;;
2021/10/24 09:04:57;;;;;;;0.9;0.6;;;;;;;11.64;46.0166;945.5765;;;;
2021/10/24 09:07:23;;;;;;;1.8;1.4;;;;;;;11.53;55.06738;945.5535;;;;
2021/10/24 09:09:48;;;;;;;1.9;1.7;;;;;;;11.21;59.77246;945.6158;;;;
2021/10/24 09:12:13;;;;;;;3.5;2;;;;;;;10.98;61.73047;945.5681;;;;
2021/10/24 09:14:38;;;;;;;2.6;1.8;;;;;;;11.03;61.7373;945.4864;;;;
2021/10/24 09:17:03;;;;;;;2.4;1.7;;;;;;;10.68;60.61426;945.5467;;;;
2021/10/24 09:19:28;;;;;;;1.8;1.5;;;;;;;10.53;61.14063;945.5639;;;;
2021/10/24 09:21:53;;;;;;;1.8;1.6;;;;;;;10.4;60.3584;945.5258;;;;
2021/10/24 09:24:19;;;;;;;3.3;1.6;;;;;;;10.06;62.48828;945.5209;;;;
2021/10/24 09:26:44;;;;;;;2.9;1.6;;;;;;;10.19;62.13086;945.551;;;;
2021/10/24 09:29:09;;;;;;;1.8;1.5;;;;;;;9.76;63.71094;945.5507;;;;
2021/10/24 09:31:34;;;;;;;3.2;1.7;;;;;;;9.85;64.69336;945.4783;;;;
2021/10/24 09:34:01;;;;;;;2.1;1.6;;;;;;;9.89;62.6582;945.5023;;;;
2021/10/24 09:36:26;;;;;;;1.8;1.5;;;;;;;10.03;63.93359;945.5378;;;;
2021/10/24 09:38:51;;;;;;;2.5;1.4;;;;;;;10.17;60.79297;945.5497;;;;
2021/10/24 09:41:16;;;;;;;1.4;1.3;;;;;;;10.18;60.78223;945.4933;;;;
2021/10/24 09:43:42;;;;;;;1.8;1.4;;;;;;;10.03;61.05762;945.4892;;;;
2021/10/24 09:46:07;;;;;;;3.5;1.7;;;;;;;9.97;61.80176;945.4922;;;;
2021/10/24 09:48:32;;;;;;;2.9;1.6;;;;;;;10.11;60.94434;945.4559;;;;
2021/10/24 09:50:58;;;;;;;1.2;1.1;;;;;;;10.19;59.43848;945.445;;;;
2021/10/24 09:53:23;;;;;;;2;1.3;;;;;;;10.25;60.84863;945.5073;;;;
2021/10/24 09:55:48;;;;;;;2;1.2;;;;;;;10.05;59.49805;945.543;;;;
2021/10/24 09:58:13;;;;;;;1.4;1.1;;;;;;;10.28;59.30176;945.5271;;;;
2021/10/24 10:00:38;;;;;;;1.5;1.4;;;;;;;10.35;58;945.5494;;;;
2021/10/24 10:03:03;;;;;;;1.3;1.1;;;;;;;10.6;58.79883;945.587;;;;
2021/10/24 10:05:28;;;;;;;1.7;1.3;;;;;;;10.78;58.32031;945.5511;;;;
2021/10/24 10:07:53;;;;;;;1.9;1.3;;;;;;;10.87;57.01758;945.4559;;;;
2021/10/24 10:10:18;;;;;;;1.7;1.2;;;;;;;11.11;55.86035;945.5175;;;;
2021/10/24 10:12:45;;;;;;;1.3;1.1;;;;;;;11.19;55.41406;945.5278;;;;
2021/10/24 10:15:13;;;;;;;2;1.1;;;;;;;11.14;54.98438;945.5516;;;;
2021/10/24 10:17:38;;;;;;;1.4;1.2;;;;;;;11.24;55.4209;945.521;;;;
2021/10/24 10:20:03;;;;;;;2.3;1.1;;;;;;;11.31;54.90234;945.4378;;;;
2021/10/24 10:22:28;;;;;;;2.7;1.2;;;;;;;11.36;54.97852;945.4268;;;;
2021/10/24 10:24:56;;;;;;;1.5;1.1;;;;;;;11.42;53.97852;945.432;;;;
2021/10/24 10:27:21;;;;;;;1.2;0.9;;;;;;;11.62;52.57324;945.4111;;;;
2021/10/24 10:29:47;;;;;;;1.3;1;;;;;;;11.66;52.46191;945.4028;;;;
2021/10/24 10:32:12;;;;;;;1.3;1.2;;;;;;;11.59;54.77734;945.3855;;;;
2021/10/24 10:34:37;;;;;;;1.6;1;;;;;;;11.81;52.88184;945.3593;;;;
2021/10/24 10:37:03;;;;;;;1.1;0.8;;;;;;;11.96;51.12402;945.3477;;;;
2021/10/24 10:39:28;;;;;;;2.2;1;;;;;;;11.88;52.34082;945.3616;;;;
2021/10/24 10:41:53;;;;;;;2.3;1.2;;;;;;;11.98;53.18848;945.3599;;;;
2021/10/24 10:44:18;;;;;;;1.9;1.3;;;;;;;11.94;54.27246;945.361;;;;
2021/10/24 10:46:44;;;;;;;1.1;1;;;;;;;12.14;51.35254;945.3156;;;;
2021/10/24 10:49:08;;;;;;;2.6;1.2;;;;;;;12.14;54.69824;945.2676;;;;
2021/10/24 10:51:34;;;;;;;1.1;1;;;;;;;12.54;52.67383;945.2322;;;;
2021/10/24 10:53:59;;;;;;;1.6;1.3;;;;;;;12.66;51.55078;945.182;;;;
2021/10/24 10:56:24;;;;;;;1.7;1;;;;;;;12.66;52.14844;945.1142;;;;
2021/10/24 10:59:12;;;;;;;1.1;1;;;;;;;12.83;50.6875;945.1644;;;;
2021/10/24 11:01:38;;;;;;;1.2;1.1;;;;;;;13.13;51.09082;945.2305;;;;
2021/10/24 11:04:02;;;;;;;1.7;0.8;;;;;;;13.04;51.58496;945.2128;;;;
2021/10/24 11:06:27;;;;;;;1.1;1;;;;;;;13.19;51.21289;945.1259;;;;
2021/10/24 11:08:53;;;;;;;1.1;0.9;;;;;;;13.39;48.94824;945.1722;;;;
2021/10/24 11:11:18;;;;;;;1.3;0.9;;;;;;;13.82;48.38672;945.1656;;;;
2021/10/24 11:13:43;;;;;;;1.9;1;;;;;;;13.77;48.58789;945.1456;;;;
2021/10/24 11:16:08;;;;;;;0.9;0.9;;;;;;;14.27;47.94238;945.038;;;;
2021/10/24 11:18:33;;;;;;;2.4;1;;;;;;;14.59;45.87891;945.1373;;;;
2021/10/24 11:20:58;;;;;;;0.8;0.8;;;;;;;15.21;44.81348;945.0652;;;;
2021/10/24 11:23:24;;;;;;;2.1;1.3;;;;;;;15.49;43.36426;945.0471;;;;
2021/10/24 11:25:48;;;;;;;1.1;0.9;;;;;;;16.21;40.92578;944.9358;;;;
2021/10/24 11:28:14;;;;;;;1.6;0.9;;;;;;;16.73;41.33301;944.8931;;;;
2021/10/24 11:30:39;;;;;;;2.2;1;;;;;;;16.52;41.16309;944.9059;;;;
2021/10/24 11:33:04;;;;;;;1.1;0.8;;;;;;;16.17;42.79492;944.8812;;;;
2021/10/24 11:35:30;;;;;;;0.7;0.7;;;;;;;16.02;41.25488;944.834;;;;
2021/10/24 11:37:55;;;;;;;1.5;0.8;;;;;;;16.26;41.56738;944.8436;;;;
2021/10/24 11:40:22;;;;;;;1.3;0.9;;;;;;;16.65;40.74609;944.7628;;;;
2021/10/24 11:42:47;;;;;;;0.8;0.8;;;;;;;16.9;39.79688;944.7874;;;;
2021/10/24 11:45:12;;;;;;;1.4;0.9;;;;;;;17.27;41.07031;944.7756;;;;
2021/10/24 11:47:37;;;;;;;0.8;0.8;;;;;;;17.32;38.68652;944.7864;;;;
2021/10/24 11:50:02;;;;;;;2.7;0.8;;;;;;;18.21;36.92773;944.8303;;;;
2021/10/24 11:52:27;;;;;;;1.6;1;;;;;;;20.32;34.7002;944.7198;;;;
2021/10/24 11:54:53;;;;;;;1.2;0.8;;;;;;;21.76;32.11914;944.679;;;;
2021/10/24 11:57:34;;;;;;;1.1;0.8;;;;;;;23.1;29.21973;944.597;;;;
2021/10/24 11:59:53;;;;;;;0.6;0.6;;;;;;;25.47;26.77734;944.6166;;;;
2021/10/24 12:02:08;;;;;;;0.7;0.7;;;;;;;27.42;23.91602;944.6423;;;;
2021/10/24 12:04:34;;;;;;;0.8;0.8;;;;;;;29.26;21.08398;944.5952;;;;
2021/10/24 12:07:00;;;;;;;1.5;0.9;;;;;;;30.64;19.81055;944.5322;;;;
2021/10/24 12:09:24;;;;;;;2.3;0.7;;;;;;;32.07;18.61426;944.5519;;;;
2021/10/24 12:11:49;;;;;;;1.7;0.8;;;;;;;33.15;17.37305;944.5953;;;;
2021/10/24 12:14:15;;;;;;;2.1;0.8;;;;;;;34.48;16.50781;944.6192;;;;
2021/10/24 12:16:42;;;;;;;0.9;0.8;;;;;;;34.11;16.42188;944.5956;;;;
2021/10/24 12:19:06;;;;;;;0.7;0.7;;;;;;;35.3;15.47461;944.5955;;;;
2021/10/24 12:21:32;;;;;;;0.7;0.7;;;;;;;36.07;14.83594;944.5641;;;;
2021/10/24 12:23:57;;;;;;;0.7;0.7;;;;;;;34.4;16.10742;944.51;;;;
2021/10/24 12:26:22;;;;;;;0.8;0.8;;;;;;;33.58;17.35352;944.5062;;;;
2021/10/24 12:28:47;;;;;;;1;0.9;;;;;;;33.01;17.5;944.4414;;;;
2021/10/24 12:31:14;;;;;;;0.8;0.7;;;;;;;34.12;16.30176;944.4639;;;;
2021/10/24 12:33:39;;;;;;;1.3;1;;;;;;;31.41;18.63477;944.4072;;;;
2021/10/24 12:36:06;;;;;;;3.8;2.1;;;;;;;31.8;18.56738;944.384;;;;
2021/10/24 12:38:29;;;;;;;4.7;2.8;;;;;;;32.39;18.05176;944.3989;;;;
2021/10/24 12:40:54;;;;;;;3.2;2;;;;;;;33.56;16.91992;944.3943;;;;
2021/10/24 12:43:20;;;;;;;2.1;1.6;;;;;;;32.79;17.94727;944.3709;;;;
2021/10/24 12:45:46;;;;;;;1.6;0.9;;;;;;;30.94;19.67969;944.3649;;;;
2021/10/24 12:48:11;;;;;;;2.2;1;;;;;;;30.44;20.41016;944.3873;;;;
2021/10/24 12:50:36;;;;;;;0.8;0.8;;;;;;;31.13;19.91504;944.3594;;;;
2021/10/24 12:53:01;;;;;;;1;0.9;;;;;;;30.47;20.72266;944.3474;;;;
2021/10/24 12:55:30;;;;;;;0.8;0.8;;;;;;;30.98;20.24316;944.3947;;;;
2021/10/24 12:57:55;;;;;;;1.8;1;;;;;;;32.65;18.60254;944.3627;;;;
2021/10/24 13:00:20;;;;;;;0.8;0.8;;;;;;;31.46;19.64258;944.343;;;;
2021/10/24 13:02:45;;;;;;;4.3;1.1;;;;;;;29.55;21.68164;944.2961;;;;
2021/10/24 13:05:11;;;;;;;0.9;0.8;;;;;;;31.01;20.29297;944.3181;;;;
2021/10/24 13:07:36;;;;;;;2.2;1;;;;;;;31.51;19.56055;944.3312;;;;
2021/10/24 13:10:03;;;;;;;1.1;0.9;;;;;;;29.19;22.11719;944.2317;;;;
2021/10/24 13:12:28;;;;;;;1.3;0.8;;;;;;;30.25;20.30664;944.222;;;;
2021/10/24 13:14:53;;;;;;;1.8;0.9;;;;;;;30.47;20.29199;944.2218;;;;
2021/10/24 13:17:18;;;;;;;1.1;0.9;;;;;;;31.31;19.54004;944.1804;;;;
2021/10/24 13:19:45;;;;;;;1.5;0.9;;;;;;;32.95;17.89355;944.1696;;;;
2021/10/24 13:24:38;;;;;;;0.8;0.7;;;;;;;31.72;19.39063;944.1223;;;;
2021/10/24 13:27:00;;;;;;;0.9;0.8;;;;;;;32.04;19.13965;944.1418;;;;
2021/10/24 13:29:27;;;;;;;0.9;0.8;;;;;;;30.86;19.97559;944.1994;;;;
2021/10/24 13:31:52;;;;;;;1.2;0.8;;;;;;;32.16;18.6543;944.1644;;;;
2021/10/24 13:34:18;;;;;;;1.5;1.1;;;;;;;33.76;17.58887;944.1692;;;;
2021/10/24 13:36:43;;;;;;;2.2;1.2;;;;;;;31.28;19.79004;944.205;;;;
2021/10/24 13:39:09;;;;;;;1.1;1;;;;;;;32.81;18.46484;944.1949;;;;
2021/10/24 13:41:34;;;;;;;0.8;0.8;;;;;;;31.5;19.82422;944.1998;;;;
2021/10/24 13:44:00;;;;;;;0.8;0.8;;;;;;;29.87;20.96875;944.1688;;;;
2021/10/24 13:46:25;;;;;;;1.3;0.8;;;;;;;30.48;20.85449;944.204;;;;
2021/10/24 13:48:52;;;;;;;1.1;1;;;;;;;31.41;19.91602;944.1592;;;;
2021/10/24 13:51:17;;;;;;;1;0.9;;;;;;;31.86;19.27637;944.1616;;;;
2021/10/24 13:53:44;;;;;;;2.6;1;;;;;;;31.8;19.64551;944.1675;;;;
2021/10/24 13:56:09;;;;;;;1.4;0.9;;;;;;;32.32;18.91211;944.1514;;;;
2021/10/24 13:58:34;;;;;;;1.7;1;;;;;;;32.8;18.78809;944.1666;;;;
2021/10/24 14:01:00;;;;;;;2.5;1.2;;;;;;;32.72;18.54492;944.1002;;;;
2021/10/24 14:03:26;;;;;;;4;1.1;;;;;;;32.9;18.74414;944.1345;;;;
2021/10/24 14:05:52;;;;;;;1.8;0.9;;;;;;;32.88;18.52734;944.1517;;;;
2021/10/24 14:08:17;;;;;;;2.4;1.1;;;;;;;32.72;18.7373;944.1625;;;;
2021/10/24 14:10:49;;;;;;;1.2;1;;;;;;;32.98;18.69922;944.1431;;;;
2021/10/24 14:13:07;;;;;;;1.4;1.2;;;;;;;33.13;18.35742;944.1071;;;;
2021/10/24 14:15:34;;;;;;;1.3;0.9;;;;;;;32.44;19.28906;944.1072;;;;
2021/10/24 14:18:00;;;;;;;1.2;1;;;;;;;32.29;19.16309;944.1046;;;;
2021/10/24 14:20:25;;;;;;;1.5;1.1;;;;;;;32.21;19.33984;944.0853;;;;
2021/10/24 14:22:50;;;;;;;1.6;1.2;;;;;;;32.3;19.45117;944.0867;;;;
2021/10/24 14:25:16;;;;;;;1.9;1.4;;;;;;;32.23;19.38867;944.0945;;;;
2021/10/24 14:27:42;;;;;;;2.1;1.2;;;;;;;32.3;19.1875;944.1217;;;;
2021/10/24 14:30:07;;;;;;;2;1.5;;;;;;;32.3;19.41504;944.0953;;;;
2021/10/24 14:32:33;;;;;;;1.2;1;;;;;;;31.84;19.53906;944.0862;;;;
2021/10/24 14:34:59;;;;;;;1.3;0.8;;;;;;;31.55;19.77832;944.1002;;;;
2021/10/24 14:37:24;;;;;;;1;1;;;;;;;31.59;19.95996;944.1101;;;;
2021/10/24 14:39:50;;;;;;;2.5;1;;;;;;;30.92;20.58691;944.0275;;;;
2021/10/24 14:42:15;;;;;;;2.4;1.1;;;;;;;29.03;23.13281;943.9836;;;;
2021/10/24 14:44:40;;;;;;;1.6;1.2;;;;;;;28.97;23.02246;944.0042;;;;
2021/10/24 14:47:07;;;;;;;4.1;1.2;;;;;;;28.75;23.7373;943.983;;;;
2021/10/24 14:49:32;;;;;;;3.1;1.1;;;;;;;28.4;23.61133;943.9031;;;;
2021/10/24 14:51:59;;;;;;;2.3;1.4;;;;;;;27.83;24.21094;943.9539;;;;
2021/10/24 14:58:15;;;;;;;2.1;1;;;;;;;26.22;26.98828;943.9958;;;;
2021/10/24 15:00:40;;;;;;;0.9;0.8;;;;;;;25.57;27.53906;943.9405;;;;
2021/10/24 15:03:05;;;;;;;1.4;1.2;;;;;;;23.8;30.06738;943.9694;;;;
2021/10/24 15:05:30;;;;;;;3.4;1.1;;;;;;;22.42;32.27246;943.948;;;;
2021/10/24 15:08:06;;;;;;;2.3;1.4;;;;;;;21.9;32.98438;943.9096;;;;
2021/10/24 15:10:31;;;;;;;3.3;2.5;;;;;;;20.74;35.59863;943.9448;;;;
2021/10/24 15:12:56;;;;;;;5.8;3.9;;;;;;;19.49;38.27148;943.9966;;;;
2021/10/24 15:15:28;;;;;;;2.8;1.6;;;;;;;18.43;40.52734;944.0287;;;;
2021/10/24 15:17:57;;;;;;;1.7;1.3;;;;;;;17.71;41.87793;944.017;;;;
2021/10/24 15:22:43;;;;;;;2.6;2.3;;;;;;;16.52;45.82813;943.9725;;;;
2021/10/24 15:25:08;;;;;;;2.1;1.8;;;;;;;15.95;47.2373;944.0554;;;;
2021/10/24 15:27:34;;;;;;;2.7;1.6;;;;;;;15.69;48.72168;944.0193;;;;
2021/10/24 15:29:59;;;;;;;3.4;1.7;;;;;;;15.36;49.29688;943.9777;;;;
2021/10/24 15:32:24;;;;;;;7.9;4.6;;;;;;;15.1;50.15527;943.9684;;;;
2021/10/24 15:34:50;;;;;;;29;18.1;;;;;;;14.8;51.38965;943.9937;;;;
2021/10/24 15:37:15;;;;;;;18.4;12.2;;;;;;;14.53;52.25781;944.0023;;;;
2021/10/24 15:39:42;;;;;;;14.4;9.4;;;;;;;14.37;53.19434;944.0106;;;;
2021/10/24 15:42:06;;;;;;;9.3;5.4;;;;;;;14.1;55.46289;944.0556;;;;
2021/10/24 15:44:33;;;;;;;5.7;3.9;;;;;;;13.52;57.35547;944.0783;;;;
2021/10/24 15:47:01;;;;;;;6.6;4.2;;;;;;;13.18;58.06836;944.111;;;;